sensor_id;sensor_type;location;lat;lon;timestamp;P1;durP1;ratioP1;P2;durP2;ratioP2
6131;SDS011;3097;42.692;23.278;2023-08-20T00:01:31;8.57;;;7.77;;
6131;SDS011;3097;42.692;23.278;2023-08-20T00:03:56;8.20;;;7.57;;
6131;SDS011;3097;42.692;23.278;2023-08-20T00:06:22;8.17;;;7.37;;
6131;SDS011;3097;42.692;23.278;2023-08-20T00:08:48;8.20;;;7.50;;
6131;SDS011;3097;42.692;23.278;2023-08-20T00:11:14;9.13;;;8.33;;
6131;SDS011;3097;42.692;23.278;2023-08-20T00:13:40;8.53;;;7.70;;
6131;SDS011;3097;42.692;23.278;2023-08-20T00:16:05;8.40;;;7.73;;
6131;SDS011;3097;42.692;23.278;2023-08-20T00:18:31;9.10;;;8.27;;
6131;SDS011;3097;42.692;23.278;2023-08-20T00:20:57;9.33;;;8.37;;
6131;SDS011;3097;42.692;23.278;2023-08-20T00:23:23;8.53;;;7.73;;
6131;SDS011;3097;42.692;23.278;2023-08-20T00:25:49;8.40;;;7.70;;
6131;SDS011;3097;42.692;23.278;2023-08-20T00:28:14;9.00;;;8.10;;
6131;SDS011;3097;42.692;23.278;2023-08-20T00:30:40;8.70;;;7.90;;
6131;SDS011;3097;42.692;23.278;2023-08-20T00:33:05;8.57;;;7.77;;
6131;SDS011;3097;42.692;23.278;2023-08-20T00:35:31;8.97;;;7.97;;
6131;SDS011;3097;42.692;23.278;2023-08-20T00:37:56;9.10;;;8.20;;
6131;SDS011;3097;42.692;23.278;2023-08-20T00:40:22;7.90;;;7.30;;
6131;SDS011;3097;42.692;23.278;2023-08-20T00:42:48;8.50;;;7.70;;
6131;SDS011;3097;42.692;23.278;2023-08-20T00:45:14;8.33;;;7.57;;
6131;SDS011;3097;42.692;23.278;2023-08-20T00:47:41;9.37;;;8.40;;
6131;SDS011;3097;42.692;23.278;2023-08-20T00:50:07;8.87;;;7.97;;
6131;SDS011;3097;42.692;23.278;2023-08-20T00:52:33;9.00;;;8.20;;
6131;SDS011;3097;42.692;23.278;2023-08-20T00:55:00;8.67;;;7.87;;
6131;SDS011;3097;42.692;23.278;2023-08-20T00:57:38;8.83;;;8.03;;
6131;SDS011;3097;42.692;23.278;2023-08-20T01:00:05;8.93;;;8.03;;
6131;SDS011;3097;42.692;23.278;2023-08-20T01:02:35;9.07;;;8.27;;
6131;SDS011;3097;42.692;23.278;2023-08-20T01:05:02;9.10;;;8.20;;
6131;SDS011;3097;42.692;23.278;2023-08-20T01:12:56;8.73;;;7.93;;
6131;SDS011;3097;42.692;23.278;2023-08-20T01:15:23;10.50;;;8.50;;
6131;SDS011;3097;42.692;23.278;2023-08-20T01:17:49;8.93;;;8.03;;
6131;SDS011;3097;42.692;23.278;2023-08-20T01:20:15;9.70;;;8.60;;
6131;SDS011;3097;42.692;23.278;2023-08-20T01:25:45;9.80;;;8.80;;
6131;SDS011;3097;42.692;23.278;2023-08-20T01:30:53;11.47;;;9.37;;
6131;SDS011;3097;42.692;23.278;2023-08-20T01:33:21;10.43;;;9.23;;
6131;SDS011;3097;42.692;23.278;2023-08-20T01:35:47;9.87;;;8.93;;
6131;SDS011;3097;42.692;23.278;2023-08-20T01:38:12;11.57;;;9.27;;
6131;SDS011;3097;42.692;23.278;2023-08-20T01:40:37;10.80;;;9.80;;
6131;SDS011;3097;42.692;23.278;2023-08-20T01:43:03;10.93;;;9.60;;
6131;SDS011;3097;42.692;23.278;2023-08-20T01:45:28;10.17;;;9.17;;
6131;SDS011;3097;42.692;23.278;2023-08-20T01:47:54;10.33;;;9.50;;
6131;SDS011;3097;42.692;23.278;2023-08-20T01:50:19;10.23;;;9.23;;
6131;SDS011;3097;42.692;23.278;2023-08-20T01:52:45;10.77;;;9.63;;
6131;SDS011;3097;42.692;23.278;2023-08-20T01:55:11;10.30;;;9.40;;
6131;SDS011;3097;42.692;23.278;2023-08-20T01:57:36;10.47;;;9.47;;
6131;SDS011;3097;42.692;23.278;2023-08-20T02:00:02;10.17;;;9.17;;
6131;SDS011;3097;42.692;23.278;2023-08-20T02:02:30;10.50;;;9.50;;
6131;SDS011;3097;42.692;23.278;2023-08-20T02:04:56;10.43;;;9.33;;
6131;SDS011;3097;42.692;23.278;2023-08-20T02:07:21;9.87;;;8.97;;
6131;SDS011;3097;42.692;23.278;2023-08-20T02:09:46;10.57;;;9.53;;
6131;SDS011;3097;42.692;23.278;2023-08-20T02:12:12;10.33;;;9.33;;
6131;SDS011;3097;42.692;23.278;2023-08-20T02:14:37;10.40;;;9.50;;
6131;SDS011;3097;42.692;23.278;2023-08-20T02:17:03;10.50;;;9.47;;
6131;SDS011;3097;42.692;23.278;2023-08-20T02:19:29;11.30;;;10.20;;
6131;SDS011;3097;42.692;23.278;2023-08-20T02:21:54;10.93;;;9.87;;
6131;SDS011;3097;42.692;23.278;2023-08-20T02:24:20;10.90;;;9.83;;
6131;SDS011;3097;42.692;23.278;2023-08-20T02:26:45;10.27;;;9.37;;
6131;SDS011;3097;42.692;23.278;2023-08-20T02:29:11;10.40;;;9.40;;
6131;SDS011;3097;42.692;23.278;2023-08-20T02:31:36;10.83;;;9.80;;
6131;SDS011;3097;42.692;23.278;2023-08-20T02:34:02;10.97;;;9.87;;
6131;SDS011;3097;42.692;23.278;2023-08-20T02:36:27;10.23;;;9.30;;
6131;SDS011;3097;42.692;23.278;2023-08-20T02:38:53;10.57;;;9.47;;
6131;SDS011;3097;42.692;23.278;2023-08-20T02:41:18;10.70;;;9.67;;
6131;SDS011;3097;42.692;23.278;2023-08-20T02:43:44;10.73;;;9.67;;
6131;SDS011;3097;42.692;23.278;2023-08-20T02:46:10;10.07;;;9.17;;
6131;SDS011;3097;42.692;23.278;2023-08-20T02:48:36;10.30;;;9.30;;
6131;SDS011;3097;42.692;23.278;2023-08-20T02:51:01;10.27;;;9.20;;
6131;SDS011;3097;42.692;23.278;2023-08-20T02:53:27;11.10;;;10.10;;
6131;SDS011;3097;42.692;23.278;2023-08-20T02:55:53;10.30;;;9.30;;
6131;SDS011;3097;42.692;23.278;2023-08-20T02:58:18;12.20;;;9.37;;
6131;SDS011;3097;42.692;23.278;2023-08-20T03:00:44;10.67;;;9.60;;
6131;SDS011;3097;42.692;23.278;2023-08-20T03:03:10;11.03;;;9.90;;
6131;SDS011;3097;42.692;23.278;2023-08-20T03:05:36;10.17;;;9.17;;
6131;SDS011;3097;42.692;23.278;2023-08-20T03:08:01;11.80;;;9.80;;
6131;SDS011;3097;42.692;23.278;2023-08-20T03:10:28;10.80;;;9.87;;
6131;SDS011;3097;42.692;23.278;2023-08-20T03:12:54;10.90;;;9.87;;
6131;SDS011;3097;42.692;23.278;2023-08-20T03:15:19;10.50;;;9.50;;
6131;SDS011;3097;42.692;23.278;2023-08-20T03:17:45;13.53;;;9.23;;
6131;SDS011;3097;42.692;23.278;2023-08-20T03:20:10;11.63;;;10.43;;
6131;SDS011;3097;42.692;23.278;2023-08-20T03:22:37;10.43;;;9.37;;
6131;SDS011;3097;42.692;23.278;2023-08-20T03:25:03;10.97;;;9.87;;
6131;SDS011;3097;42.692;23.278;2023-08-20T03:27:29;11.43;;;10.20;;
6131;SDS011;3097;42.692;23.278;2023-08-20T03:29:55;12.93;;;9.57;;
6131;SDS011;3097;42.692;23.278;2023-08-20T03:32:20;12.90;;;10.50;;
6131;SDS011;3097;42.692;23.278;2023-08-20T03:34:46;10.67;;;9.60;;
6131;SDS011;3097;42.692;23.278;2023-08-20T03:37:12;11.43;;;10.23;;
6131;SDS011;3097;42.692;23.278;2023-08-20T03:39:37;11.30;;;10.20;;
6131;SDS011;3097;42.692;23.278;2023-08-20T03:42:03;14.30;;;10.07;;
6131;SDS011;3097;42.692;23.278;2023-08-20T03:44:28;10.30;;;9.40;;
6131;SDS011;3097;42.692;23.278;2023-08-20T03:46:55;10.73;;;9.60;;
6131;SDS011;3097;42.692;23.278;2023-08-20T03:49:20;10.80;;;9.70;;
6131;SDS011;3097;42.692;23.278;2023-08-20T03:51:46;11.33;;;10.13;;
6131;SDS011;3097;42.692;23.278;2023-08-20T03:54:11;12.07;;;10.87;;
6131;SDS011;3097;42.692;23.278;2023-08-20T03:56:37;10.50;;;9.50;;
6131;SDS011;3097;42.692;23.278;2023-08-20T03:59:02;11.17;;;10.07;;
6131;SDS011;3097;42.692;23.278;2023-08-20T04:01:28;15.20;;;9.97;;
6131;SDS011;3097;42.692;23.278;2023-08-20T04:03:53;11.23;;;9.97;;
6131;SDS011;3097;42.692;23.278;2023-08-20T04:06:19;10.93;;;9.67;;
6131;SDS011;3097;42.692;23.278;2023-08-20T04:08:44;13.40;;;9.37;;
6131;SDS011;3097;42.692;23.278;2023-08-20T04:11:10;10.70;;;9.60;;
6131;SDS011;3097;42.692;23.278;2023-08-20T04:13:35;10.87;;;9.77;;
6131;SDS011;3097;42.692;23.278;2023-08-20T04:16:00;10.80;;;9.70;;
6131;SDS011;3097;42.692;23.278;2023-08-20T04:18:26;11.37;;;10.00;;
6131;SDS011;3097;42.692;23.278;2023-08-20T04:20:52;12.33;;;9.57;;
6131;SDS011;3097;42.692;23.278;2023-08-20T04:23:18;10.50;;;9.50;;
6131;SDS011;3097;42.692;23.278;2023-08-20T04:25:44;12.60;;;10.17;;
6131;SDS011;3097;42.692;23.278;2023-08-20T04:28:10;13.10;;;9.77;;
6131;SDS011;3097;42.692;23.278;2023-08-20T04:30:36;11.33;;;9.50;;
6131;SDS011;3097;42.692;23.278;2023-08-20T04:33:02;12.03;;;10.10;;
6131;SDS011;3097;42.692;23.278;2023-08-20T04:35:28;12.23;;;10.43;;
6131;SDS011;3097;42.692;23.278;2023-08-20T04:37:53;11.43;;;9.93;;
6131;SDS011;3097;42.692;23.278;2023-08-20T04:40:19;16.47;;;10.43;;
6131;SDS011;3097;42.692;23.278;2023-08-20T04:42:44;11.87;;;10.40;;
6131;SDS011;3097;42.692;23.278;2023-08-20T04:45:10;12.20;;;10.63;;
6131;SDS011;3097;42.692;23.278;2023-08-20T04:47:36;11.60;;;9.27;;
6131;SDS011;3097;42.692;23.278;2023-08-20T04:50:02;10.70;;;9.70;;
6131;SDS011;3097;42.692;23.278;2023-08-20T04:52:28;11.47;;;10.07;;
6131;SDS011;3097;42.692;23.278;2023-08-20T04:54:53;12.07;;;10.13;;
6131;SDS011;3097;42.692;23.278;2023-08-20T04:57:19;13.13;;;9.27;;
6131;SDS011;3097;42.692;23.278;2023-08-20T04:59:44;11.77;;;9.23;;
6131;SDS011;3097;42.692;23.278;2023-08-20T05:02:11;11.43;;;9.40;;
6131;SDS011;3097;42.692;23.278;2023-08-20T05:04:37;10.97;;;9.33;;
6131;SDS011;3097;42.692;23.278;2023-08-20T05:07:03;11.53;;;9.03;;
6131;SDS011;3097;42.692;23.278;2023-08-20T05:09:28;12.63;;;8.60;;
6131;SDS011;3097;42.692;23.278;2023-08-20T05:11:54;10.30;;;9.30;;
6131;SDS011;3097;42.692;23.278;2023-08-20T05:14:19;10.17;;;8.80;;
6131;SDS011;3097;42.692;23.278;2023-08-20T05:16:45;10.03;;;9.03;;
6131;SDS011;3097;42.692;23.278;2023-08-20T05:19:10;11.20;;;10.13;;
6131;SDS011;3097;42.692;23.278;2023-08-20T05:21:36;12.63;;;10.63;;
6131;SDS011;3097;42.692;23.278;2023-08-20T05:24:01;12.82;;;11.40;;
6131;SDS011;3097;42.692;23.278;2023-08-20T05:26:26;12.32;;;11.07;;
6131;SDS011;3097;42.692;23.278;2023-08-20T05:28:52;11.48;;;10.38;;
6131;SDS011;3097;42.692;23.278;2023-08-20T05:31:17;11.43;;;10.32;;
6131;SDS011;3097;42.692;23.278;2023-08-20T05:33:43;10.23;;;9.32;;
6131;SDS011;3097;42.692;23.278;2023-08-20T05:36:08;10.45;;;9.65;;
6131;SDS011;3097;42.692;23.278;2023-08-20T05:38:34;10.18;;;9.35;;
6131;SDS011;3097;42.692;23.278;2023-08-20T05:40:59;10.57;;;9.63;;
6131;SDS011;3097;42.692;23.278;2023-08-20T05:43:24;10.70;;;9.90;;
6131;SDS011;3097;42.692;23.278;2023-08-20T05:45:50;10.95;;;9.45;;
6131;SDS011;3097;42.692;23.278;2023-08-20T05:48:15;9.95;;;9.02;;
6131;SDS011;3097;42.692;23.278;2023-08-20T05:50:41;10.00;;;9.13;;
6131;SDS011;3097;42.692;23.278;2023-08-20T05:53:06;9.48;;;8.55;;
6131;SDS011;3097;42.692;23.278;2023-08-20T05:55:31;10.15;;;9.25;;
6131;SDS011;3097;42.692;23.278;2023-08-20T05:57:57;10.13;;;8.93;;
6131;SDS011;3097;42.692;23.278;2023-08-20T06:00:22;10.15;;;9.25;;
6131;SDS011;3097;42.692;23.278;2023-08-20T06:02:48;10.65;;;9.75;;
6131;SDS011;3097;42.692;23.278;2023-08-20T06:05:13;10.45;;;9.40;;
6131;SDS011;3097;42.692;23.278;2023-08-20T06:07:39;9.80;;;8.80;;
6131;SDS011;3097;42.692;23.278;2023-08-20T06:10:06;10.40;;;9.40;;
6131;SDS011;3097;42.692;23.278;2023-08-20T06:12:32;9.88;;;9.13;;
6131;SDS011;3097;42.692;23.278;2023-08-20T06:14:58;10.45;;;9.50;;
6131;SDS011;3097;42.692;23.278;2023-08-20T06:17:23;11.25;;;9.35;;
6131;SDS011;3097;42.692;23.278;2023-08-20T06:19:48;9.85;;;9.02;;
6131;SDS011;3097;42.692;23.278;2023-08-20T06:22:14;9.77;;;8.98;;
6131;SDS011;3097;42.692;23.278;2023-08-20T06:24:40;10.35;;;9.13;;
6131;SDS011;3097;42.692;23.278;2023-08-20T06:27:08;9.57;;;8.88;;
6131;SDS011;3097;42.692;23.278;2023-08-20T06:29:33;9.85;;;9.05;;
6131;SDS011;3097;42.692;23.278;2023-08-20T06:31:59;9.70;;;8.95;;
6131;SDS011;3097;42.692;23.278;2023-08-20T06:34:24;10.02;;;9.23;;
6131;SDS011;3097;42.692;23.278;2023-08-20T06:36:49;10.18;;;9.38;;
6131;SDS011;3097;42.692;23.278;2023-08-20T06:39:15;12.60;;;9.65;;
6131;SDS011;3097;42.692;23.278;2023-08-20T06:41:41;10.48;;;9.48;;
6131;SDS011;3097;42.692;23.278;2023-08-20T06:44:06;9.65;;;8.70;;
6131;SDS011;3097;42.692;23.278;2023-08-20T06:46:32;9.20;;;8.50;;
6131;SDS011;3097;42.692;23.278;2023-08-20T06:48:58;9.88;;;8.82;;
6131;SDS011;3097;42.692;23.278;2023-08-20T06:51:23;9.75;;;9.00;;
6131;SDS011;3097;42.692;23.278;2023-08-20T06:53:50;9.98;;;9.18;;
6131;SDS011;3097;42.692;23.278;2023-08-20T06:56:15;9.73;;;8.90;;
6131;SDS011;3097;42.692;23.278;2023-08-20T06:58:42;10.13;;;9.32;;
6131;SDS011;3097;42.692;23.278;2023-08-20T07:01:07;9.57;;;8.77;;
6131;SDS011;3097;42.692;23.278;2023-08-20T07:03:34;8.98;;;8.27;;
6131;SDS011;3097;42.692;23.278;2023-08-20T07:06:03;8.57;;;7.88;;
6131;SDS011;3097;42.692;23.278;2023-08-20T07:08:28;9.75;;;8.95;;
6131;SDS011;3097;42.692;23.278;2023-08-20T07:10:54;8.57;;;8.00;;
6131;SDS011;3097;42.692;23.278;2023-08-20T07:13:19;8.15;;;7.45;;
6131;SDS011;3097;42.692;23.278;2023-08-20T07:15:45;8.85;;;8.18;;
6131;SDS011;3097;42.692;23.278;2023-08-20T07:18:10;8.68;;;7.93;;
6131;SDS011;3097;42.692;23.278;2023-08-20T07:20:38;9.73;;;8.93;;
6131;SDS011;3097;42.692;23.278;2023-08-20T07:23:04;7.93;;;7.43;;
6131;SDS011;3097;42.692;23.278;2023-08-20T07:25:30;8.57;;;7.88;;
6131;SDS011;3097;42.692;23.278;2023-08-20T07:27:55;8.30;;;7.55;;
6131;SDS011;3097;42.692;23.278;2023-08-20T07:30:24;7.97;;;7.35;;
6131;SDS011;3097;42.692;23.278;2023-08-20T07:32:51;8.43;;;7.72;;
6131;SDS011;3097;42.692;23.278;2023-08-20T07:35:17;7.70;;;7.18;;
6131;SDS011;3097;42.692;23.278;2023-08-20T07:37:42;7.85;;;7.07;;
6131;SDS011;3097;42.692;23.278;2023-08-20T07:40:08;8.20;;;7.40;;
6131;SDS011;3097;42.692;23.278;2023-08-20T07:42:36;7.85;;;7.10;;
6131;SDS011;3097;42.692;23.278;2023-08-20T07:45:01;9.30;;;7.68;;
6131;SDS011;3097;42.692;23.278;2023-08-20T07:47:27;7.28;;;6.60;;
6131;SDS011;3097;42.692;23.278;2023-08-20T07:49:54;7.40;;;6.80;;
6131;SDS011;3097;42.692;23.278;2023-08-20T07:52:19;7.88;;;7.10;;
6131;SDS011;3097;42.692;23.278;2023-08-20T07:54:45;6.88;;;6.38;;
6131;SDS011;3097;42.692;23.278;2023-08-20T07:57:11;7.53;;;6.93;;
6131;SDS011;3097;42.692;23.278;2023-08-20T07:59:37;7.40;;;6.82;;
6131;SDS011;3097;42.692;23.278;2023-08-20T08:02:02;8.23;;;7.63;;
6131;SDS011;3097;42.692;23.278;2023-08-20T08:04:28;8.02;;;7.30;;
6131;SDS011;3097;42.692;23.278;2023-08-20T08:06:53;7.35;;;6.75;;
6131;SDS011;3097;42.692;23.278;2023-08-20T08:09:29;8.07;;;7.35;;
6131;SDS011;3097;42.692;23.278;2023-08-20T08:11:56;7.50;;;7.00;;
6131;SDS011;3097;42.692;23.278;2023-08-20T08:14:22;7.72;;;7.18;;
6131;SDS011;3097;42.692;23.278;2023-08-20T08:16:48;7.68;;;7.07;;
6131;SDS011;3097;42.692;23.278;2023-08-20T08:19:13;7.38;;;6.60;;
6131;SDS011;3097;42.692;23.278;2023-08-20T08:21:39;7.40;;;6.68;;
6131;SDS011;3097;42.692;23.278;2023-08-20T08:24:05;7.20;;;6.70;;
6131;SDS011;3097;42.692;23.278;2023-08-20T08:26:31;6.95;;;6.45;;
6131;SDS011;3097;42.692;23.278;2023-08-20T08:29:00;7.65;;;7.15;;
6131;SDS011;3097;42.692;23.278;2023-08-20T08:31:26;7.78;;;7.03;;
6131;SDS011;3097;42.692;23.278;2023-08-20T08:33:51;7.43;;;6.78;;
6131;SDS011;3097;42.692;23.278;2023-08-20T08:36:16;6.97;;;6.57;;
6131;SDS011;3097;42.692;23.278;2023-08-20T08:38:42;6.60;;;6.20;;
6131;SDS011;3097;42.692;23.278;2023-08-20T08:41:10;7.18;;;6.60;;
6131;SDS011;3097;42.692;23.278;2023-08-20T08:43:37;8.30;;;7.65;;
6131;SDS011;3097;42.692;23.278;2023-08-20T08:46:06;7.45;;;6.85;;
6131;SDS011;3097;42.692;23.278;2023-08-20T08:48:34;7.38;;;6.70;;
6131;SDS011;3097;42.692;23.278;2023-08-20T08:51:01;6.80;;;6.15;;
6131;SDS011;3097;42.692;23.278;2023-08-20T08:53:27;6.68;;;5.72;;
6131;SDS011;3097;42.692;23.278;2023-08-20T08:55:53;7.30;;;6.80;;
6131;SDS011;3097;42.692;23.278;2023-08-20T08:58:18;7.13;;;6.55;;
6131;SDS011;3097;42.692;23.278;2023-08-20T09:00:44;7.88;;;7.35;;
6131;SDS011;3097;42.692;23.278;2023-08-20T09:03:09;6.68;;;6.22;;
6131;SDS011;3097;42.692;23.278;2023-08-20T09:08:20;7.13;;;6.50;;
6131;SDS011;3097;42.692;23.278;2023-08-20T09:10:49;7.00;;;6.53;;
6131;SDS011;3097;42.692;23.278;2023-08-20T09:13:16;6.22;;;5.78;;
6131;SDS011;3097;42.692;23.278;2023-08-20T09:15:41;9.30;;;8.45;;
6131;SDS011;3097;42.692;23.278;2023-08-20T09:18:09;6.47;;;5.97;;
6131;SDS011;3097;42.692;23.278;2023-08-20T09:20:36;6.80;;;6.20;;
6131;SDS011;3097;42.692;23.278;2023-08-20T09:23:02;6.47;;;5.90;;
6131;SDS011;3097;42.692;23.278;2023-08-20T09:25:27;6.15;;;5.70;;
6131;SDS011;3097;42.692;23.278;2023-08-20T09:27:53;6.15;;;5.68;;
6131;SDS011;3097;42.692;23.278;2023-08-20T09:30:19;5.57;;;5.22;;
6131;SDS011;3097;42.692;23.278;2023-08-20T09:32:45;6.50;;;6.10;;
6131;SDS011;3097;42.692;23.278;2023-08-20T09:35:27;6.55;;;6.03;;
6131;SDS011;3097;42.692;23.278;2023-08-20T09:37:58;6.63;;;5.97;;
6131;SDS011;3097;42.692;23.278;2023-08-20T09:40:28;5.97;;;5.50;;
6131;SDS011;3097;42.692;23.278;2023-08-20T09:42:54;6.63;;;6.22;;
6131;SDS011;3097;42.692;23.278;2023-08-20T09:45:20;6.05;;;5.40;;
6131;SDS011;3097;42.692;23.278;2023-08-20T09:47:46;5.55;;;5.18;;
6131;SDS011;3097;42.692;23.278;2023-08-20T09:50:13;5.65;;;5.25;;
6131;SDS011;3097;42.692;23.278;2023-08-20T09:52:55;5.40;;;4.90;;
6131;SDS011;3097;42.692;23.278;2023-08-20T09:55:24;5.28;;;4.97;;
6131;SDS011;3097;42.692;23.278;2023-08-20T09:57:54;5.15;;;4.85;;
6131;SDS011;3097;42.692;23.278;2023-08-20T10:00:21;5.13;;;4.82;;
6131;SDS011;3097;42.692;23.278;2023-08-20T10:02:47;5.15;;;4.63;;
6131;SDS011;3097;42.692;23.278;2023-08-20T10:05:14;4.97;;;4.57;;
6131;SDS011;3097;42.692;23.278;2023-08-20T10:07:40;5.22;;;4.90;;
6131;SDS011;3097;42.692;23.278;2023-08-20T10:10:08;5.10;;;4.80;;
6131;SDS011;3097;42.692;23.278;2023-08-20T10:12:36;5.07;;;4.78;;
6131;SDS011;3097;42.692;23.278;2023-08-20T10:15:04;4.85;;;4.40;;
6131;SDS011;3097;42.692;23.278;2023-08-20T10:17:33;4.70;;;4.40;;
6131;SDS011;3097;42.692;23.278;2023-08-20T10:20:00;4.93;;;4.63;;
6131;SDS011;3097;42.692;23.278;2023-08-20T10:22:38;4.78;;;4.47;;
6131;SDS011;3097;42.692;23.278;2023-08-20T10:25:08;4.57;;;4.28;;
6131;SDS011;3097;42.692;23.278;2023-08-20T10:27:46;4.68;;;4.38;;
6131;SDS011;3097;42.692;23.278;2023-08-20T10:30:18;4.55;;;4.35;;
6131;SDS011;3097;42.692;23.278;2023-08-20T10:35:18;4.57;;;4.18;;
6131;SDS011;3097;42.692;23.278;2023-08-20T10:38:07;5.20;;;4.70;;
6131;SDS011;3097;42.692;23.278;2023-08-20T10:40:53;4.68;;;4.35;;
6131;SDS011;3097;42.692;23.278;2023-08-20T10:43:30;4.43;;;4.15;;
6131;SDS011;3097;42.692;23.278;2023-08-20T10:46:03;6.20;;;5.70;;
6131;SDS011;3097;42.692;23.278;2023-08-20T10:48:44;4.70;;;4.40;;
6131;SDS011;3097;42.692;23.278;2023-08-20T10:54:10;4.90;;;4.60;;
6131;SDS011;3097;42.692;23.278;2023-08-20T10:56:39;4.18;;;3.97;;
6131;SDS011;3097;42.692;23.278;2023-08-20T10:59:08;4.65;;;4.38;;
6131;SDS011;3097;42.692;23.278;2023-08-20T11:01:48;4.40;;;4.10;;
6131;SDS011;3097;42.692;23.278;2023-08-20T11:04:15;4.50;;;4.20;;
6131;SDS011;3097;42.692;23.278;2023-08-20T11:06:42;4.57;;;4.28;;
6131;SDS011;3097;42.692;23.278;2023-08-20T11:09:08;4.97;;;3.97;;
6131;SDS011;3097;42.692;23.278;2023-08-20T11:11:33;4.63;;;4.20;;
6131;SDS011;3097;42.692;23.278;2023-08-20T11:14:04;4.65;;;4.25;;
6131;SDS011;3097;42.692;23.278;2023-08-20T11:16:31;4.32;;;4.03;;
6131;SDS011;3097;42.692;23.278;2023-08-20T11:18:57;4.95;;;4.50;;
6131;SDS011;3097;42.692;23.278;2023-08-20T11:21:22;5.38;;;4.95;;
6131;SDS011;3097;42.692;23.278;2023-08-20T11:23:48;4.43;;;4.22;;
6131;SDS011;3097;42.692;23.278;2023-08-20T11:26:13;4.80;;;4.45;;
6131;SDS011;3097;42.692;23.278;2023-08-20T11:28:44;4.65;;;4.32;;
6131;SDS011;3097;42.692;23.278;2023-08-20T11:31:10;4.93;;;4.43;;
6131;SDS011;3097;42.692;23.278;2023-08-20T11:33:36;4.72;;;4.30;;
6131;SDS011;3097;42.692;23.278;2023-08-20T11:36:01;6.32;;;5.80;;
6131;SDS011;3097;42.692;23.278;2023-08-20T11:38:29;4.85;;;4.45;;
6131;SDS011;3097;42.692;23.278;2023-08-20T11:40:55;4.80;;;4.60;;
6131;SDS011;3097;42.692;23.278;2023-08-20T11:43:22;5.20;;;4.90;;
6131;SDS011;3097;42.692;23.278;2023-08-20T11:45:48;4.80;;;4.50;;
6131;SDS011;3097;42.692;23.278;2023-08-20T11:48:14;4.88;;;4.57;;
6131;SDS011;3097;42.692;23.278;2023-08-20T11:50:41;4.63;;;4.32;;
6131;SDS011;3097;42.692;23.278;2023-08-20T11:53:08;5.20;;;4.80;;
6131;SDS011;3097;42.692;23.278;2023-08-20T11:55:35;4.80;;;4.38;;
6131;SDS011;3097;42.692;23.278;2023-08-20T11:58:00;4.78;;;4.47;;
6131;SDS011;3097;42.692;23.278;2023-08-20T12:00:26;4.72;;;4.38;;
6131;SDS011;3097;42.692;23.278;2023-08-20T12:02:57;5.35;;;4.95;;
6131;SDS011;3097;42.692;23.278;2023-08-20T12:05:29;5.18;;;4.82;;
6131;SDS011;3097;42.692;23.278;2023-08-20T12:08:03;5.32;;;4.90;;
6131;SDS011;3097;42.692;23.278;2023-08-20T12:10:30;4.90;;;4.60;;
6131;SDS011;3097;42.692;23.278;2023-08-20T12:12:57;5.63;;;5.32;;
6131;SDS011;3097;42.692;23.278;2023-08-20T12:15:24;4.75;;;4.45;;
6131;SDS011;3097;42.692;23.278;2023-08-20T12:20:32;6.43;;;6.03;;
6131;SDS011;3097;42.692;23.278;2023-08-20T12:22:59;5.60;;;5.28;;
6131;SDS011;3097;42.692;23.278;2023-08-20T12:25:29;4.72;;;4.38;;
6131;SDS011;3097;42.692;23.278;2023-08-20T12:27:55;4.65;;;4.38;;
6131;SDS011;3097;42.692;23.278;2023-08-20T12:30:21;4.43;;;4.07;;
6131;SDS011;3097;42.692;23.278;2023-08-20T12:32:46;4.63;;;4.28;;
6131;SDS011;3097;42.692;23.278;2023-08-20T12:35:12;5.05;;;4.72;;
6131;SDS011;3097;42.692;23.278;2023-08-20T12:37:38;4.88;;;4.57;;
6131;SDS011;3097;42.692;23.278;2023-08-20T12:40:04;5.13;;;4.78;;
6131;SDS011;3097;42.692;23.278;2023-08-20T12:42:33;4.50;;;4.30;;
6131;SDS011;3097;42.692;23.278;2023-08-20T12:44:58;4.80;;;4.50;;
6131;SDS011;3097;42.692;23.278;2023-08-20T12:47:24;5.10;;;4.70;;
6131;SDS011;3097;42.692;23.278;2023-08-20T12:49:49;5.25;;;4.95;;
6131;SDS011;3097;42.692;23.278;2023-08-20T12:52:15;5.05;;;4.65;;
6131;SDS011;3097;42.692;23.278;2023-08-20T12:54:40;4.78;;;4.38;;
6131;SDS011;3097;42.692;23.278;2023-08-20T12:57:05;4.72;;;4.43;;
6131;SDS011;3097;42.692;23.278;2023-08-20T12:59:31;8.15;;;7.65;;
6131;SDS011;3097;42.692;23.278;2023-08-20T13:01:57;4.90;;;4.60;;
6131;SDS011;3097;42.692;23.278;2023-08-20T13:04:23;4.93;;;4.63;;
6131;SDS011;3097;42.692;23.278;2023-08-20T13:06:49;5.82;;;5.13;;
6131;SDS011;3097;42.692;23.278;2023-08-20T13:09:14;5.20;;;4.80;;
6131;SDS011;3097;42.692;23.278;2023-08-20T13:11:43;4.68;;;4.38;;
6131;SDS011;3097;42.692;23.278;2023-08-20T13:14:10;5.18;;;4.78;;
6131;SDS011;3097;42.692;23.278;2023-08-20T13:16:36;6.15;;;5.72;;
6131;SDS011;3097;42.692;23.278;2023-08-20T13:19:01;5.05;;;4.75;;
6131;SDS011;3097;42.692;23.278;2023-08-20T13:21:27;6.07;;;5.57;;
6131;SDS011;3097;42.692;23.278;2023-08-20T13:23:53;5.97;;;5.57;;
6131;SDS011;3097;42.692;23.278;2023-08-20T13:26:18;6.22;;;5.82;;
6131;SDS011;3097;42.692;23.278;2023-08-20T13:28:47;10.88;;;10.02;;
6131;SDS011;3097;42.692;23.278;2023-08-20T13:31:12;5.22;;;4.93;;
6131;SDS011;3097;42.692;23.278;2023-08-20T13:33:38;5.40;;;5.10;;
6131;SDS011;3097;42.692;23.278;2023-08-20T13:36:04;4.85;;;4.55;;
6131;SDS011;3097;42.692;23.278;2023-08-20T13:38:30;4.90;;;4.63;;
6131;SDS011;3097;42.692;23.278;2023-08-20T13:40:55;4.72;;;4.43;;
6131;SDS011;3097;42.692;23.278;2023-08-20T13:43:22;5.28;;;4.97;;
6131;SDS011;3097;42.692;23.278;2023-08-20T13:45:48;5.65;;;4.97;;
6131;SDS011;3097;42.692;23.278;2023-08-20T13:48:14;4.97;;;4.63;;
6131;SDS011;3097;42.692;23.278;2023-08-20T13:50:39;5.13;;;4.60;;
6131;SDS011;3097;42.692;23.278;2023-08-20T13:53:04;4.85;;;4.55;;
6131;SDS011;3097;42.692;23.278;2023-08-20T13:55:30;4.72;;;4.32;;
6131;SDS011;3097;42.692;23.278;2023-08-20T13:57:56;5.15;;;4.72;;
6131;SDS011;3097;42.692;23.278;2023-08-20T14:00:22;4.78;;;4.47;;
6131;SDS011;3097;42.692;23.278;2023-08-20T14:02:47;4.82;;;4.47;;
6131;SDS011;3097;42.692;23.278;2023-08-20T14:05:13;4.88;;;4.47;;
6131;SDS011;3097;42.692;23.278;2023-08-20T14:07:39;4.63;;;4.32;;
6131;SDS011;3097;42.692;23.278;2023-08-20T14:10:06;4.80;;;4.40;;
6131;SDS011;3097;42.692;23.278;2023-08-20T14:12:33;4.70;;;4.35;;
6131;SDS011;3097;42.692;23.278;2023-08-20T14:14:59;4.63;;;4.22;;
6131;SDS011;3097;42.692;23.278;2023-08-20T14:17:28;4.72;;;4.43;;
6131;SDS011;3097;42.692;23.278;2023-08-20T14:19:54;7.18;;;4.70;;
6131;SDS011;3097;42.692;23.278;2023-08-20T14:22:19;4.90;;;4.60;;
6131;SDS011;3097;42.692;23.278;2023-08-20T14:24:45;4.90;;;4.50;;
6131;SDS011;3097;42.692;23.278;2023-08-20T14:27:10;4.60;;;4.30;;
6131;SDS011;3097;42.692;23.278;2023-08-20T14:29:35;4.38;;;4.18;;
6131;SDS011;3097;42.692;23.278;2023-08-20T14:32:01;4.82;;;4.53;;
6131;SDS011;3097;42.692;23.278;2023-08-20T14:34:27;4.85;;;4.45;;
6131;SDS011;3097;42.692;23.278;2023-08-20T14:36:53;4.57;;;4.18;;
6131;SDS011;3097;42.692;23.278;2023-08-20T14:39:18;5.18;;;4.88;;
6131;SDS011;3097;42.692;23.278;2023-08-20T14:41:44;6.82;;;4.40;;
6131;SDS011;3097;42.692;23.278;2023-08-20T14:44:09;5.15;;;4.85;;
6131;SDS011;3097;42.692;23.278;2023-08-20T14:46:35;5.25;;;4.70;;
6131;SDS011;3097;42.692;23.278;2023-08-20T14:49:00;5.10;;;4.80;;
6131;SDS011;3097;42.692;23.278;2023-08-20T14:51:26;4.30;;;4.10;;
6131;SDS011;3097;42.692;23.278;2023-08-20T14:53:51;5.03;;;4.63;;
6131;SDS011;3097;42.692;23.278;2023-08-20T14:56:16;4.85;;;4.50;;
6131;SDS011;3097;42.692;23.278;2023-08-20T14:58:42;4.63;;;4.32;;
6131;SDS011;3097;42.692;23.278;2023-08-20T15:01:07;4.63;;;4.32;;
6131;SDS011;3097;42.692;23.278;2023-08-20T15:03:33;4.60;;;4.30;;
6131;SDS011;3097;42.692;23.278;2023-08-20T15:05:58;5.25;;;4.95;;
6131;SDS011;3097;42.692;23.278;2023-08-20T15:08:24;6.18;;;5.10;;
6131;SDS011;3097;42.692;23.278;2023-08-20T15:10:56;4.80;;;4.50;;
6131;SDS011;3097;42.692;23.278;2023-08-20T15:13:30;5.55;;;5.18;;